Time;durP1;ratioP1;P1;durP2;ratioP2;P2;SDS_P1;SDS_P2;PMS_P1;PMS_P2;Temp;Humidity;BMP_temperature;BMP_pressure;BME280_temperature;BME280_humidity;BME280_pressure;Samples;Min_cycle;Max_cycle;Signal;HPM_P1;HPM_P2
2023/12/11 00:01:43;;;;;;;9.13;3.15;;;;;;;5.41;100.00;97122.50;5049468;28;20031;-77
2023/12/11 00:04:08;;;;;;;15.27;3.95;;;;;;;5.36;100.00;97135.69;5044645;28;20045;-76
2023/12/11 00:06:34;;;;;;;8.88;3.45;;;;;;;5.40;99.73;97129.66;5051237;28;20094;-77
2023/12/11 00:08:59;;;;;;;11.43;3.50;;;;;;;5.37;100.00;97143.41;5048109;28;20029;-77
2023/12/11 00:11:25;;;;;;;20.60;3.55;;;;;;;5.38;100.00;97142.34;5049582;28;20025;-77
2023/12/11 00:13:50;;;;;;;13.38;3.67;;;;;;;5.39;100.00;97143.94;5053662;28;20024;-78
2023/12/11 00:16:17;;;;;;;14.88;3.25;;;;;;;5.33;100.00;97151.03;5045817;28;20032;-77
2023/12/11 00:18:42;;;;;;;7.40;4.03;;;;;;;5.38;99.89;97141.53;5048709;28;20094;-77
2023/12/11 00:21:07;;;;;;;10.25;4.35;;;;;;;5.35;99.79;97136.78;5033601;28;20044;-78
2023/12/11 00:23:33;;;;;;;5.03;2.90;;;;;;;5.36;99.88;97144.44;5029841;28;20032;-78
2023/12/11 00:25:58;;;;;;;10.30;3.45;;;;;;;5.37;100.00;97153.19;5048323;28;20446;-78
2023/12/11 00:28:24;;;;;;;20.17;3.78;;;;;;;5.33;99.87;97144.94;5053669;28;20028;-77
2023/12/11 00:30:49;;;;;;;8.38;3.25;;;;;;;5.35;100.00;97147.34;5034162;28;20091;-77
2023/12/11 00:33:14;;;;;;;8.95;3.13;;;;;;;5.33;100.00;97144.94;5051883;28;20508;-77
2023/12/11 00:35:40;;;;;;;13.90;3.85;;;;;;;5.38;100.00;97142.34;5046621;28;20156;-79
2023/12/11 00:38:05;;;;;;;11.63;4.00;;;;;;;5.35;99.95;97140.22;5055477;28;20551;-79
2023/12/11 00:40:31;;;;;;;5.85;3.13;;;;;;;5.30;100.00;97140.19;5062533;28;20037;-78
2023/12/11 00:42:56;;;;;;;16.20;4.03;;;;;;;5.33;99.87;97155.53;5053917;28;20474;-79
2023/12/11 00:45:21;;;;;;;4.18;2.97;;;;;;;5.33;100.00;97145.75;5053311;28;20112;-78
2023/12/11 00:47:47;;;;;;;8.93;2.92;;;;;;;5.31;100.00;97141.75;5058412;28;20465;-78
2023/12/11 00:50:12;;;;;;;7.88;3.15;;;;;;;5.35;100.00;97142.06;5061625;28;20037;-78
2023/12/11 00:52:38;;;;;;;11.77;3.08;;;;;;;5.34;100.00;97149.19;5061035;28;20032;-79
2023/12/11 00:55:03;;;;;;;7.93;2.95;;;;;;;5.31;100.00;97139.91;5059291;28;20029;-78
2023/12/11 00:57:29;;;;;;;11.63;2.60;;;;;;;5.31;100.00;97142.56;5035988;28;20114;-79
2023/12/11 00:59:54;;;;;;;8.60;3.03;;;;;;;5.37;100.00;97139.97;5054646;28;20025;-78
2023/12/11 01:02:19;;;;;;;6.95;2.80;;;;;;;5.35;100.00;97142.06;5049745;28;20036;-79
2023/12/11 01:04:45;;;;;;;9.90;3.15;;;;;;;5.37;100.00;97129.38;5052516;28;20093;-78
2023/12/11 01:07:11;;;;;;;7.15;2.45;;;;;;;5.32;100.00;97136.22;5032996;28;20319;-79
2023/12/11 01:09:37;;;;;;;4.35;2.90;;;;;;;5.29;100.00;97133.28;5037318;28;20125;-79
2023/12/11 01:12:03;;;;;;;13.13;2.60;;;;;;;5.33;100.00;97147.59;5055661;28;20120;-79
2023/12/11 01:14:28;;;;;;;7.07;3.00;;;;;;;5.34;100.00;97146.56;5034145;28;20041;-79
2023/12/11 01:16:53;;;;;;;11.07;3.13;;;;;;;5.36;100.00;97154.22;5049763;28;20033;-79
2023/12/11 01:19:19;;;;;;;9.40;2.88;;;;;;;5.34;100.00;97151.84;5049933;28;20079;-79
2023/12/11 01:21:45;;;;;;;10.60;2.70;;;;;;;5.34;100.00;97159.78;5038769;28;20405;-78
2023/12/11 01:24:11;;;;;;;6.40;2.47;;;;;;;5.35;100.00;97158.75;5032558;28;20035;-78
2023/12/11 01:26:37;;;;;;;6.97;3.13;;;;;;;5.35;100.00;97158.75;5055044;28;20025;-77
2023/12/11 01:29:02;;;;;;;18.55;3.47;;;;;;;5.34;100.00;97162.41;5050033;28;20029;-79
2023/12/11 01:31:28;;;;;;;12.15;3.95;;;;;;;5.34;100.00;97151.84;5047492;28;20026;-78
2023/12/11 01:33:53;;;;;;;20.95;4.32;;;;;;;5.27;99.61;97146.78;5050319;28;20048;-79
2023/12/11 01:36:19;;;;;;;4.68;2.28;;;;;;;5.37;99.61;97161.13;5047348;28;20036;-80
2023/12/11 01:38:44;;;;;;;9.05;2.53;;;;;;;5.30;99.87;97150.75;5049630;28;20036;-79
2023/12/11 01:41:10;;;;;;;5.53;2.15;;;;;;;5.29;100.00;97165.84;5047315;28;20482;-78
2023/12/11 01:43:35;;;;;;;5.57;3.15;;;;;;;5.34;99.35;97157.13;5050159;28;20032;-78
2023/12/11 01:46:10;;;;;;;10.48;3.10;;;;;;;5.29;100.00;97165.84;5046192;28;20425;-78
2023/12/11 01:48:36;;;;;;;10.82;2.85;;;;;;;5.29;99.53;97167.66;5032306;28;20063;-78
2023/12/11 01:51:02;;;;;;;9.95;3.10;;;;;;;5.35;99.99;97171.97;5045825;28;20043;-78
2023/12/11 01:53:28;;;;;;;10.10;3.00;;;;;;;5.34;99.09;97170.34;5059016;28;20032;-78
2023/12/11 01:55:54;;;;;;;8.77;2.83;;;;;;;5.37;99.88;97183.09;5065284;28;20028;-77
2023/12/11 01:58:20;;;;;;;19.75;4.68;;;;;;;5.32;100.00;97175.91;5050161;28;20044;-78
2023/12/11 02:00:47;;;;;;;14.13;3.28;;;;;;;5.30;100.00;97175.38;5068800;28;20044;-77
2023/12/11 02:03:12;;;;;;;10.45;3.22;;;;;;;5.32;100.00;97164.53;5051620;28;20036;-77
2023/12/11 02:05:38;;;;;;;7.57;2.88;;;;;;;5.33;100.00;97174.03;5070877;28;20040;-77
2023/12/11 02:08:04;;;;;;;9.43;2.65;;;;;;;5.36;100.00;97180.66;5046759;28;20028;-77
2023/12/11 02:10:29;;;;;;;12.43;3.28;;;;;;;5.37;100.00;97182.28;5050159;28;20028;-77
2023/12/11 02:12:55;;;;;;;10.40;3.17;;;;;;;5.47;100.00;97174.38;5073687;28;20078;-79
2023/12/11 02:15:41;;;;;;;8.07;3.25;;;;;;;5.41;100.00;97184.16;5070985;28;20155;-78
2023/12/11 02:18:08;;;;;;;12.02;2.50;;;;;;;5.35;100.00;97179.91;5070806;28;20040;-79
2023/12/11 02:20:33;;;;;;;8.98;3.13;;;;;;;5.36;100.00;97181.47;5069850;28;20036;-79
2023/12/11 02:23:03;;;;;;;8.15;3.25;;;;;;;5.32;100.00;97173.28;5069898;28;20028;-78
2023/12/11 02:25:31;;;;;;;7.70;3.25;;;;;;;5.37;100.00;97164.56;5069936;28;20025;-79
2023/12/11 02:27:59;;;;;;;10.18;3.00;;;;;;;5.38;99.67;97174.06;5069670;28;20480;-78
2023/12/11 02:30:25;;;;;;;7.50;3.20;;;;;;;5.39;99.41;97175.69;5069961;28;20400;-79
2023/12/11 02:32:53;;;;;;;13.68;6.45;;;;;;;5.37;99.42;97177.78;5069057;28;20035;-78
2023/12/11 02:35:19;;;;;;;8.70;3.05;;;;;;;5.41;99.89;97183.34;5049003;28;20477;-78
2023/12/11 02:37:44;;;;;;;10.05;3.05;;;;;;;5.37;100.00;97183.09;5068250;28;20028;-78
2023/12/11 02:40:09;;;;;;;13.13;2.80;;;;;;;5.32;99.84;97183.03;5052916;28;20036;-78
2023/12/11 02:42:35;;;;;;;7.15;2.95;;;;;;;5.37;100.00;97175.16;5069525;28;20028;-78
2023/12/11 02:45:00;;;;;;;8.65;2.10;;;;;;;5.36;100.00;97173.53;5074451;28;20032;-78
2023/12/11 02:47:26;;;;;;;6.22;3.45;;;;;;;5.36;100.00;97175.38;5074793;28;20029;-78
2023/12/11 02:49:51;;;;;;;10.32;2.67;;;;;;;5.36;99.44;97170.91;5052937;28;20443;-78
2023/12/11 02:52:16;;;;;;;11.43;2.85;;;;;;;5.36;99.66;97160.31;5064522;28;20116;-78
2023/12/11 02:54:42;;;;;;;7.85;3.85;;;;;;;5.33;100.00;97168.75;5035465;28;20478;-78
2023/12/11 02:57:07;;;;;;;8.63;2.97;;;;;;;5.30;99.52;97158.69;5051816;28;20132;-78
2023/12/11 02:59:33;;;;;;;11.70;3.17;;;;;;;5.29;100.00;97160.53;5059275;28;20025;-78
2023/12/11 03:01:58;;;;;;;10.68;3.03;;;;;;;5.33;99.82;97164.25;5016379;28;20044;-78
2023/12/11 03:04:23;;;;;;;7.88;3.00;;;;;;;5.33;99.85;97168.75;5049586;28;20430;-78
2023/12/11 03:06:51;;;;;;;10.02;2.67;;;;;;;5.26;100.00;97161.03;5049301;28;20034;-78
2023/12/11 03:09:16;;;;;;;4.93;3.45;;;;;;;5.29;100.00;97162.38;5057849;28;20032;-78
2023/12/11 03:11:42;;;;;;;17.73;3.40;;;;;;;5.32;99.44;97169.81;5037224;28;20028;-78
2023/12/11 03:14:07;;;;;;;7.85;3.28;;;;;;;5.28;99.10;97152.88;5035351;28;20131;-79
2023/12/11 03:16:32;;;;;;;11.30;3.33;;;;;;;5.36;100.00;97165.59;5051692;28;20028;-79
2023/12/11 03:18:58;;;;;;;14.45;3.72;;;;;;;5.36;99.31;97162.97;5049635;28;20044;-77
2023/12/11 03:21:23;;;;;;;11.90;3.38;;;;;;;5.42;98.58;97163.78;5045087;28;20033;-77
2023/12/11 03:23:49;;;;;;;17.77;4.10;;;;;;;5.37;99.26;97164.56;5044089;28;20118;-77
2023/12/11 03:26:14;;;;;;;7.68;3.13;;;;;;;5.40;98.71;97166.69;5048680;28;20043;-76
2023/12/11 03:28:39;;;;;;;10.98;3.47;;;;;;;5.34;98.31;97151.84;5050639;28;20020;-76
2023/12/11 03:31:05;;;;;;;7.10;2.70;;;;;;;5.37;99.50;97161.13;5049090;28;20131;-77
2023/12/11 03:33:30;;;;;;;8.48;3.13;;;;;;;5.38;99.16;97163.50;5045490;28;20079;-76
2023/12/11 03:35:56;;;;;;;9.68;4.07;;;;;;;5.43;98.93;97163.53;5048252;28;20128;-77
2023/12/11 03:38:21;;;;;;;16.65;3.95;;;;;;;5.39;98.94;97159.81;5049789;28;20044;-76
2023/12/11 03:40:47;;;;;;;13.70;3.95;;;;;;;5.39;99.39;97154.53;5046053;28;20044;-76
2023/12/11 03:43:13;;;;;;;13.43;4.07;;;;;;;5.41;98.89;97151.59;5029041;28;20076;-77
2023/12/11 03:45:38;;;;;;;16.58;3.40;;;;;;;5.43;98.96;97155.59;5040872;28;20048;-77
2023/12/11 03:48:03;;;;;;;15.10;3.60;;;;;;;5.41;99.03;97160.34;5040202;28;20041;-77
2023/12/11 03:50:29;;;;;;;11.30;5.15;;;;;;;5.42;99.36;97155.88;5046726;28;20504;-78
2023/12/11 03:52:54;;;;;;;11.40;4.05;;;;;;;5.35;98.74;97156.09;5039306;28;20123;-77
2023/12/11 03:55:20;;;;;;;11.50;3.13;;;;;;;5.37;99.39;97164.56;5025828;28;20044;-78
2023/12/11 03:57:45;;;;;;;9.85;3.10;;;;;;;5.36;98.44;97170.91;5028487;28;20496;-78
2023/12/11 04:00:11;;;;;;;16.77;3.70;;;;;;;5.27;98.63;97157.34;5046283;28;20025;-77
2023/12/11 04:02:36;;;;;;;22.73;3.75;;;;;;;5.35;99.10;97158.75;5043279;28;20108;-77
2023/12/11 04:05:02;;;;;;;16.15;3.45;;;;;;;5.35;97.87;97150.00;5043904;28;20112;-77
2023/12/11 04:07:28;;;;;;;14.52;3.60;;;;;;;5.35;98.59;97163.22;5043568;28;20098;-77
2023/12/11 04:09:53;;;;;;;14.18;4.15;;;;;;;5.30;98.86;97159.50;5044831;28;20124;-77
2023/12/11 04:12:19;;;;;;;11.15;3.97;;;;;;;5.28;97.84;97158.97;5046238;28;20112;-77
2023/12/11 04:14:44;;;;;;;13.45;3.90;;;;;;;5.27;99.18;97161.84;5052540;28;20139;-76
2023/12/11 04:17:10;;;;;;;11.25;3.80;;;;;;;5.25;98.79;97162.09;5050435;28;20037;-76
2023/12/11 04:19:35;;;;;;;22.70;4.50;;;;;;;5.26;99.52;97152.34;5052604;28;20071;-76
2023/12/11 04:22:00;;;;;;;18.42;4.13;;;;;;;5.29;98.63;97157.09;5050392;28;20036;-76
2023/12/11 04:24:26;;;;;;;22.08;4.82;;;;;;;5.23;98.93;97144.91;5050523;28;20424;-76
2023/12/11 04:26:51;;;;;;;19.10;4.78;;;;;;;5.29;99.10;97149.97;5051790;28;20033;-76
2023/12/11 04:29:16;;;;;;;15.30;4.53;;;;;;;5.31;98.74;97147.06;5045218;28;20551;-76
2023/12/11 04:31:42;;;;;;;14.25;4.25;;;;;;;5.32;98.50;97143.38;5049291;28;20041;-76
2023/12/11 04:34:07;;;;;;;18.70;3.55;;;;;;;5.25;99.04;97148.88;5051750;28;20065;-77
2023/12/11 04:36:32;;;;;;;16.88;4.07;;;;;;;5.30;98.45;97138.34;5053380;28;20460;-77
2023/12/11 04:38:58;;;;;;;12.65;4.32;;;;;;;5.33;97.82;97143.09;5049943;28;21476;-77
2023/12/11 04:41:23;;;;;;;15.02;3.13;;;;;;;5.31;98.55;97131.19;5048680;28;20028;-78
2023/12/11 04:43:48;;;;;;;12.27;3.55;;;;;;;5.29;97.90;97120.88;5017351;28;20462;-77
2023/12/11 04:46:14;;;;;;;19.42;4.30;;;;;;;5.23;98.08;97118.44;5052679;28;20021;-77
2023/12/11 04:48:40;;;;;;;18.20;3.75;;;;;;;5.25;98.25;97126.91;5013706;28;20709;-78
2023/12/11 04:51:05;;;;;;;15.57;3.88;;;;;;;5.26;99.04;97117.94;5050394;28;20064;-77
2023/12/11 04:53:31;;;;;;;11.35;3.00;;;;;;;5.29;98.21;97106.84;5052947;28;20087;-79
2023/12/11 04:55:56;;;;;;;16.70;3.97;;;;;;;5.23;98.30;97132.47;5012474;28;20059;-75
2023/12/11 04:58:22;;;;;;;16.77;3.88;;;;;;;5.22;98.88;97130.88;5047285;28;20060;-75
2023/12/11 05:00:47;;;;;;;20.63;3.63;;;;;;;5.28;98.68;97126.41;5051409;28;20040;-76
2023/12/11 05:03:13;;;;;;;23.08;3.58;;;;;;;5.28;98.35;97142.28;5048826;28;20037;-77
2023/12/11 05:05:38;;;;;;;9.90;3.50;;;;;;;5.28;98.37;97132.50;5050279;28;20029;-76
2023/12/11 05:08:04;;;;;;;22.17;4.35;;;;;;;5.30;98.37;97122.47;5048626;28;20033;-76
2023/12/11 05:10:29;;;;;;;10.13;3.08;;;;;;;5.32;98.42;97107.13;5050556;28;20032;-76
2023/12/11 05:12:54;;;;;;;17.75;3.97;;;;;;;5.58;97.69;97112.53;5048031;28;20050;-76
2023/12/11 05:15:20;;;;;;;11.98;3.33;;;;;;;5.70;97.36;97121.06;5048787;28;20390;-76
2023/12/11 05:17:45;;;;;;;13.68;3.08;;;;;;;5.71;97.05;97104.91;5049579;28;20112;-76
2023/12/11 05:20:12;;;;;;;16.55;2.53;;;;;;;5.69;97.36;97103.56;5032451;28;20037;-75
2023/12/11 05:22:38;;;;;;;17.48;3.85;;;;;;;5.61;97.20;97114.66;5043310;28;20044;-76
2023/12/11 05:25:04;;;;;;;15.25;4.28;;;;;;;5.55;97.44;97105.91;5046042;28;20025;-76
2023/12/11 05:27:29;;;;;;;14.98;3.95;;;;;;;5.50;98.16;97097.16;5047907;28;20025;-77
2023/12/11 05:29:55;;;;;;;18.77;4.30;;;;;;;5.45;98.36;97092.63;5037014;28;20436;-77
2023/12/11 05:32:20;;;;;;;13.73;3.35;;;;;;;5.47;98.42;97090.53;5049098;28;20032;-76
2023/12/11 05:34:45;;;;;;;20.45;3.20;;;;;;;5.42;98.30;97084.44;5050826;28;20036;-77
2023/12/11 05:37:11;;;;;;;23.80;4.25;;;;;;;5.37;99.08;97081.75;5049113;28;20033;-76
2023/12/11 05:39:36;;;;;;;21.58;4.40;;;;;;;5.36;98.46;97086.25;5054153;28;20448;-75
2023/12/11 05:42:02;;;;;;;22.90;5.25;;;;;;;5.38;98.63;97097.38;5046955;28;20123;-77
2023/12/11 05:44:27;;;;;;;13.88;3.47;;;;;;;5.37;98.34;97094.97;5049072;28;20037;-75
2023/12/11 05:46:53;;;;;;;13.88;5.03;;;;;;;5.38;98.32;97086.78;5017861;28;20040;-76
2023/12/11 05:49:18;;;;;;;19.90;3.83;;;;;;;5.41;98.71;97094.22;5046165;28;20109;-77
2023/12/11 05:51:43;;;;;;;14.30;3.10;;;;;;;5.44;98.27;97091.03;5018259;28;20108;-75
2023/12/11 05:54:09;;;;;;;16.08;4.60;;;;;;;5.40;99.18;97095.25;5066031;28;20401;-76
2023/12/11 05:56:34;;;;;;;18.00;3.40;;;;;;;5.41;99.81;97109.28;5052315;28;20417;-75
2023/12/11 05:59:00;;;;;;;21.75;3.13;;;;;;;5.49;99.83;97104.28;5062613;28;20071;-76
2023/12/11 06:01:26;;;;;;;16.13;3.55;;;;;;;5.53;99.83;97091.31;5070279;28;20028;-76
2023/12/11 06:03:52;;;;;;;22.05;3.50;;;;;;;5.54;99.14;97098.22;5070594;28;20036;-76
2023/12/11 06:06:17;;;;;;;18.83;3.70;;;;;;;5.59;100.00;97082.38;5071568;28;20039;-76
2023/12/11 06:08:44;;;;;;;15.32;3.25;;;;;;;5.62;99.83;97084.50;5074159;28;20033;-75
2023/12/11 06:11:10;;;;;;;17.88;4.03;;;;;;;5.61;99.96;97088.19;5072213;28;20040;-77
2023/12/11 06:13:35;;;;;;;14.50;3.30;;;;;;;5.58;100.00;97084.22;5069596;28;20035;-75
2023/12/11 06:16:01;;;;;;;11.30;2.92;;;;;;;5.62;100.00;97077.34;5077647;28;20025;-76
2023/12/11 06:18:26;;;;;;;14.32;2.50;;;;;;;5.65;100.00;97076.84;5075102;28;20032;-76
2023/12/11 06:20:51;;;;;;;10.60;3.58;;;;;;;5.65;100.00;97073.41;5073390;28;20020;-76
2023/12/11 06:23:17;;;;;;;12.68;3.22;;;;;;;5.70;100.00;97084.00;5088666;28;20097;-76
2023/12/11 06:25:42;;;;;;;9.38;2.85;;;;;;;5.62;100.00;97087.13;5084410;28;20024;-76
2023/12/11 06:28:08;;;;;;;10.52;2.88;;;;;;;5.62;100.00;97080.00;5080434;28;20033;-76
2023/12/11 06:30:33;;;;;;;17.58;3.38;;;;;;;5.69;100.00;97080.56;5078953;28;20147;-76
2023/12/11 06:32:58;;;;;;;17.27;3.50;;;;;;;5.65;100.00;97074.19;5074194;28;20477;-75
2023/12/11 06:35:24;;;;;;;12.65;3.08;;;;;;;5.67;100.00;97077.38;5072624;28;20027;-75
2023/12/11 06:37:49;;;;;;;13.90;3.67;;;;;;;5.74;100.00;97087.72;5070521;28;20488;-76
2023/12/11 06:40:14;;;;;;;17.30;3.35;;;;;;;5.71;100.00;97094.31;5078891;28;20036;-75
2023/12/11 06:42:40;;;;;;;21.65;3.78;;;;;;;5.70;100.00;97095.38;5077437;28;20028;-75
2023/12/11 06:45:08;;;;;;;17.38;3.50;;;;;;;5.79;100.00;97090.34;5058527;28;20044;-76
2023/12/11 06:47:34;;;;;;;17.35;3.75;;;;;;;5.80;100.00;97090.13;5072314;28;20036;-75
2023/12/11 06:49:59;;;;;;;10.80;3.38;;;;;;;5.70;100.00;97074.19;5074430;28;20082;-76
2023/12/11 06:52:25;;;;;;;12.30;3.20;;;;;;;5.78;100.00;97081.66;5073586;28;20063;-76
2023/12/11 06:54:50;;;;;;;17.30;5.25;;;;;;;5.76;100.00;97067.88;5071677;28;20483;-76
2023/12/11 06:57:16;;;;;;;12.07;3.17;;;;;;;5.80;100.00;97076.88;5059118;28;20037;-76
2023/12/11 06:59:41;;;;;;;15.20;3.83;;;;;;;5.82;100.00;97069.47;5072691;28;20035;-75
2023/12/11 07:02:06;;;;;;;11.75;2.83;;;;;;;5.83;100.00;97068.41;5064932;28;21878;-75
2023/12/11 07:04:32;;;;;;;13.95;4.10;;;;;;;5.81;100.00;97077.69;5062279;28;20028;-76
2023/12/11 07:06:57;;;;;;;18.17;4.28;;;;;;;5.79;100.00;97069.97;5051222;28;20040;-75
2023/12/11 07:09:22;;;;;;;11.07;3.55;;;;;;;5.80;100.00;97070.78;5071549;28;20013;-75
2023/12/11 07:11:48;;;;;;;4.72;2.38;;;;;;;5.77;100.00;97069.44;5073029;28;20489;-76
2023/12/11 07:14:14;;;;;;;15.88;3.53;;;;;;;5.80;100.00;97066.28;5072701;28;20056;-75
2023/12/11 07:16:39;;;;;;;15.23;3.53;;;;;;;5.71;100.00;97064.41;5064779;28;20027;-76
2023/12/11 07:19:04;;;;;;;14.57;3.03;;;;;;;5.77;100.00;97060.72;5068646;28;20044;-76
2023/12/11 07:21:30;;;;;;;15.02;3.92;;;;;;;5.77;100.00;97056.22;5073096;28;20118;-75
2023/12/11 07:23:55;;;;;;;22.13;6.32;;;;;;;5.74;100.00;97056.75;5068684;28;20116;-76
2023/12/11 07:26:21;;;;;;;12.60;3.08;;;;;;;5.78;100.00;97063.13;5068032;28;20473;-76
2023/12/11 07:28:46;;;;;;;22.10;4.10;;;;;;;5.74;100.00;97056.75;5070008;28;20505;-76
2023/12/11 07:31:11;;;;;;;20.08;3.53;;;;;;;5.83;100.00;97057.81;5060068;28;20024;-76
2023/12/11 07:33:37;;;;;;;17.92;3.47;;;;;;;5.75;100.00;97062.81;5063203;28;20454;-74
2023/12/11 07:36:03;;;;;;;16.60;3.95;;;;;;;5.83;100.00;97060.47;5077580;28;20036;-76
2023/12/11 07:38:30;;;;;;;22.17;4.28;;;;;;;5.78;100.00;97036.66;5069138;28;20060;-76
2023/12/11 07:40:56;;;;;;;14.93;3.58;;;;;;;5.80;100.00;97045.13;5066820;28;20123;-76
2023/12/11 07:43:21;;;;;;;15.57;4.93;;;;;;;5.78;100.00;97049.88;5060005;28;20078;-75
2023/12/11 07:45:47;;;;;;;22.77;4.75;;;;;;;5.80;100.00;97045.13;5068688;28;20028;-75
2023/12/11 07:48:12;;;;;;;18.85;4.20;;;;;;;5.76;100.00;97032.66;5071119;28;20416;-75
2023/12/11 07:50:39;;;;;;;8.82;2.97;;;;;;;5.74;100.00;97048.00;5051118;28;20078;-74
2023/12/11 07:53:04;;;;;;;24.67;4.32;;;;;;;5.80;100.00;97061.00;5065213;28;20027;-76
2023/12/11 07:55:30;;;;;;;17.05;3.55;;;;;;;5.87;100.00;97066.88;5068987;28;20036;-77
2023/12/11 07:57:55;;;;;;;20.20;3.65;;;;;;;5.87;100.00;97063.44;5069567;28;20024;-76
2023/12/11 08:00:21;;;;;;;16.08;3.65;;;;;;;5.80;100.00;97057.56;5053236;28;20033;-76
2023/12/11 08:02:46;;;;;;;15.07;4.25;;;;;;;5.80;100.00;97049.59;5068339;28;20036;-75
2023/12/11 08:05:11;;;;;;;14.82;4.10;;;;;;;5.81;100.00;97089.03;5063579;28;20024;-76
2023/12/11 08:07:37;;;;;;;21.35;4.35;;;;;;;5.85;100.00;97076.91;5071827;28;20055;-76
2023/12/11 08:10:04;;;;;;;15.00;3.85;;;;;;;5.77;100.00;97050.13;5052541;28;20557;-76
2023/12/11 08:12:30;;;;;;;19.75;6.07;;;;;;;5.84;100.00;97061.28;5070710;28;20119;-76
2023/12/11 08:14:56;;;;;;;14.88;4.18;;;;;;;5.83;100.00;97055.16;5071267;28;20028;-76
2023/12/11 08:17:22;;;;;;;17.25;3.90;;;;;;;5.88;100.00;97063.16;5068610;28;20485;-75
2023/12/11 08:19:47;;;;;;;18.58;4.32;;;;;;;5.89;100.00;97054.16;5064977;28;20048;-77
2023/12/11 08:22:14;;;;;;;19.38;3.53;;;;;;;5.91;100.00;97056.53;5067759;28;20037;-78
2023/12/11 08:24:40;;;;;;;19.25;4.53;;;;;;;5.99;100.00;97053.38;5070258;28;20033;-77
2023/12/11 08:27:07;;;;;;;17.80;3.47;;;;;;;5.93;100.00;97055.22;5074687;28;20043;-77
2023/12/11 08:29:34;;;;;;;16.45;3.90;;;;;;;5.93;100.00;97049.94;5067505;28;20500;-77
2023/12/11 08:32:00;;;;;;;21.08;6.25;;;;;;;5.91;100.00;97048.59;5069673;28;20115;-77
2023/12/11 08:34:25;;;;;;;17.10;4.32;;;;;;;5.90;100.00;97049.66;5072371;28;20032;-78
2023/12/11 08:36:51;;;;;;;24.55;5.20;;;;;;;5.86;100.00;97046.75;5072576;28;20476;-78
2023/12/11 08:39:16;;;;;;;9.40;3.50;;;;;;;5.87;100.00;97042.25;5079375;28;20090;-77
2023/12/11 08:41:42;;;;;;;14.45;3.72;;;;;;;5.85;99.70;97050.44;5046718;28;20086;-77
2023/12/11 08:44:07;;;;;;;16.90;3.63;;;;;;;5.90;100.00;97045.16;5053513;28;20127;-76
2023/12/11 08:46:34;;;;;;;20.30;4.45;;;;;;;5.89;100.00;97035.63;5073105;28;20118;-76
2023/12/11 08:48:59;;;;;;;14.20;2.85;;;;;;;5.93;100.00;97039.34;5044070;28;20028;-77
2023/12/11 08:51:25;;;;;;;17.42;3.88;;;;;;;5.94;100.00;97043.56;5085646;28;20440;-77
2023/12/11 08:53:51;;;;;;;23.35;3.67;;;;;;;6.08;99.87;97046.50;5053236;28;20504;-77
2023/12/11 08:56:19;;;;;;;21.38;5.60;;;;;;;6.07;99.61;97030.88;5065667;28;20060;-76
2023/12/11 08:58:46;;;;;;;14.15;2.85;;;;;;;6.10;99.45;97033.00;5076211;28;20103;-78
2023/12/11 09:01:12;;;;;;;19.58;3.00;;;;;;;6.16;99.61;97029.31;5078606;28;20028;-77
2023/12/11 09:03:37;;;;;;;11.43;3.13;;;;;;;6.19;99.24;97039.34;5058880;28;20617;-76
2023/12/11 09:06:03;;;;;;;13.45;3.17;;;;;;;6.23;99.49;97049.16;5068295;28;20694;-77
2023/12/11 09:08:29;;;;;;;15.30;3.33;;;;;;;6.22;98.68;97036.19;5081444;28;20020;-76
2023/12/11 09:10:54;;;;;;;11.18;3.00;;;;;;;6.28;98.52;97037.78;5074411;28;20397;-76
2023/12/11 09:13:20;;;;;;;12.25;3.88;;;;;;;6.28;98.60;97051.81;5079258;28;20031;-77
2023/12/11 09:15:45;;;;;;;9.85;2.70;;;;;;;6.28;98.61;97051.00;5059738;28;20028;-78
2023/12/11 09:18:10;;;;;;;10.75;2.50;;;;;;;6.29;98.82;97048.09;5083473;28;20032;-78
2023/12/11 09:20:36;;;;;;;12.00;2.53;;;;;;;6.27;98.36;97036.97;5085037;28;20052;-76
2023/12/11 09:23:01;;;;;;;14.73;2.65;;;;;;;6.32;99.11;97052.88;5089115;28;20036;-77
2023/12/11 09:25:27;;;;;;;8.00;2.50;;;;;;;6.32;98.74;97052.88;5068518;28;20059;-77
2023/12/11 09:27:52;;;;;;;14.73;3.20;;;;;;;6.30;98.93;97062.13;5075653;28;20035;-76
2023/12/11 09:30:18;;;;;;;6.43;3.08;;;;;;;6.30;99.53;97070.09;5077072;28;20388;-77
2023/12/11 09:32:44;;;;;;;9.05;2.58;;;;;;;6.33;98.31;97066.91;5075993;28;20032;-76
2023/12/11 09:35:10;;;;;;;5.38;2.15;;;;;;;6.33;98.61;97067.72;5077670;28;20040;-77
2023/12/11 09:37:35;;;;;;;11.75;2.63;;;;;;;6.38;98.43;97072.19;5078982;28;20082;-77
2023/12/11 09:40:01;;;;;;;6.82;2.33;;;;;;;6.34;98.25;97050.75;5038960;28;20393;-77
2023/12/11 09:42:27;;;;;;;9.73;2.60;;;;;;;6.33;98.13;97056.31;5073993;28;20029;-78
2023/12/11 09:44:53;;;;;;;14.27;3.55;;;;;;;6.38;97.78;97056.31;5063194;28;20039;-77
2023/12/11 09:47:34;;;;;;;8.73;2.40;;;;;;;6.44;97.95;97044.66;5086251;28;20048;-76
2023/12/11 09:49:59;;;;;;;8.48;1.92;;;;;;;6.44;98.30;97056.06;5085738;28;20024;-77
2023/12/11 09:52:26;;;;;;;4.22;2.13;;;;;;;6.50;97.51;97059.50;5090023;28;20031;-77
2023/12/11 09:54:52;;;;;;;9.35;2.50;;;;;;;6.45;97.99;97059.50;5077529;28;20047;-77
2023/12/11 09:57:17;;;;;;;6.97;2.40;;;;;;;6.45;98.55;97043.59;5062353;28;20449;-76
2023/12/11 09:59:43;;;;;;;12.52;2.38;;;;;;;6.46;98.91;97043.34;5070530;28;20040;-78
2023/12/11 10:02:16;;;;;;;7.30;2.75;;;;;;;6.47;98.70;97041.47;5080826;28;20035;-78
2023/12/11 10:05:01;;;;;;;4.75;1.98;;;;;;;6.45;98.50;97040.94;5080305;28;20034;-77
2023/12/11 10:07:27;;;;;;;8.38;2.25;;;;;;;6.40;99.26;97047.03;5078072;28;20076;-77
2023/12/11 10:09:52;;;;;;;11.18;3.97;;;;;;;6.45;99.63;97048.88;5080565;28;20028;-78
2023/12/11 10:12:17;;;;;;;11.68;2.78;;;;;;;6.43;99.67;97043.88;5082067;28;20028;-77
2023/12/11 10:14:59;;;;;;;14.38;3.63;;;;;;;6.45;99.93;97033.00;5085889;28;20476;-77
2023/12/11 10:17:25;;;;;;;12.27;3.55;;;;;;;6.51;99.83;97034.59;5072221;28;20104;-76
2023/12/11 10:19:50;;;;;;;15.93;3.72;;;;;;;6.54;100.00;97039.34;5054060;28;20091;-76
2023/12/11 10:22:27;;;;;;;15.23;3.25;;;;;;;6.53;99.25;97040.44;5073400;28;20120;-77
2023/12/11 10:24:52;;;;;;;11.63;2.72;;;;;;;6.46;100.00;97042.53;5075679;28;20063;-77
2023/12/11 10:27:25;;;;;;;14.48;4.38;;;;;;;6.53;99.38;97041.19;5073334;28;20056;-76
2023/12/11 10:30:20;;;;;;;16.40;5.05;;;;;;;6.53;99.81;97027.19;5080758;28;20503;-77
2023/12/11 10:32:45;;;;;;;13.80;3.42;;;;;;;6.60;99.48;97032.97;5057797;28;20066;-78
2023/12/11 10:35:22;;;;;;;18.30;3.97;;;;;;;6.60;99.47;97032.97;5080528;28;20407;-77
2023/12/11 10:37:47;;;;;;;7.32;2.58;;;;;;;6.60;99.83;97017.06;5074461;28;20521;-76
2023/12/11 10:40:13;;;;;;;16.52;3.15;;;;;;;6.61;100.00;97030.06;5075533;28;20108;-76
2023/12/11 10:42:40;;;;;;;13.75;2.63;;;;;;;6.62;99.96;97039.59;5069481;28;20086;-76
2023/12/11 10:45:07;;;;;;;12.88;2.90;;;;;;;6.56;99.66;97021.31;5068215;28;20041;-77
2023/12/11 10:47:33;;;;;;;10.05;2.90;;;;;;;6.56;100.00;97026.63;5051620;28;20396;-77
2023/12/11 10:50:02;;;;;;;10.05;4.43;;;;;;;6.58;99.74;97030.59;5073472;28;20032;-77
2023/12/11 10:52:28;;;;;;;11.10;3.50;;;;;;;6.58;100.00;97021.84;5025999;28;1095865;-76
2023/12/11 10:54:55;;;;;;;12.63;3.00;;;;;;;6.61;100.00;97029.28;5062354;28;20025;-76
2023/12/11 10:57:22;;;;;;;13.02;3.47;;;;;;;6.58;99.66;97027.16;5052530;28;20035;-76
2023/12/11 10:59:50;;;;;;;10.85;3.22;;;;;;;6.57;99.68;97025.56;5068737;28;20037;-76
2023/12/11 11:02:18;;;;;;;16.85;3.88;;;;;;;6.53;100.00;97027.19;5068614;28;20036;-76
2023/12/11 11:04:45;;;;;;;14.25;3.83;;;;;;;6.59;100.00;97015.50;5051065;28;20032;-77
2023/12/11 11:07:23;;;;;;;10.73;3.47;;;;;;;6.56;99.33;97011.53;5057287;28;20029;-76
2023/12/11 11:09:49;;;;;;;13.75;3.50;;;;;;;6.64;98.84;97020.81;5056544;28;20032;-77
2023/12/11 11:12:53;;;;;;;8.98;4.53;;;;;;;6.69;98.95;97016.28;5065159;28;20828;-76
2023/12/11 11:15:23;;;;;;;9.95;3.17;;;;;;;6.72;99.42;97013.09;5063755;28;20261;-77
2023/12/11 11:18:03;;;;;;;14.00;3.58;;;;;;;6.79;99.07;97015.47;5066929;28;20075;-76
2023/12/11 11:20:33;;;;;;;14.63;3.67;;;;;;;6.78;98.90;97013.88;5060595;28;20440;-77
2023/12/11 11:23:32;;;;;;;17.42;3.45;;;;;;;6.76;99.13;97016.00;5040203;28;20158;-76
2023/12/11 11:25:57;;;;;;;16.67;3.50;;;;;;;6.71;99.42;97019.44;5033199;28;20067;-76
2023/12/11 11:28:42;;;;;;;8.57;2.55;;;;;;;6.72;98.36;97021.06;5052326;28;20052;-77